Time;durP1;ratioP1;P1;durP2;ratioP2;P2;SDS_P1;SDS_P2;PMS_P1;PMS_P2;Temp;Humidity;BMP_temperature;BMP_pressure;BME280_temperature;BME280_humidity;BME280_pressure;Samples;Min_cycle;Max_cycle;Signal;HPM_P1;HPM_P2
2021/12/29 00:02:18;;;;;;;3.78;3.47;;;;;;;;;;7331338;19;162817;-27
2021/12/29 00:04:52;;;;;;;3.50;3.20;;;;;;;;;;7330158;19;154159;-15
2021/12/29 00:07:24;;;;;;;3.03;2.83;;;;;;;;;;7329942;19;153999;-16
2021/12/29 00:09:59;;;;;;;3.50;3.20;;;;;;;;;;7338376;19;162129;-15
2021/12/29 00:12:34;;;;;;;3.00;2.83;;;;;;;;;;7336270;19;162541;-15
2021/12/29 00:15:07;;;;;;;3.33;3.03;;;;;;;;;;7335611;19;154036;-15
2021/12/29 00:17:42;;;;;;;3.20;3.00;;;;;;;;;;7338760;19;153719;-15
2021/12/29 00:20:18;;;;;;;3.13;2.90;;;;;;;;;;7337796;19;161613;-14
2021/12/29 00:22:50;;;;;;;3.78;3.47;;;;;;;;;;7338134;19;162476;-18
2021/12/29 00:25:24;;;;;;;3.10;2.83;;;;;;;;;;7336919;19;154116;-15
2021/12/29 00:28:03;;;;;;;2.67;2.47;;;;;;;;;;7335813;19;153587;-17
2021/12/29 00:30:36;;;;;;;2.38;2.25;;;;;;;;;;7334257;19;161929;-15
2021/12/29 00:33:28;;;;;;;2.50;2.30;;;;;;;;;;7333709;19;162905;-16
2021/12/29 00:36:21;;;;;;;2.60;2.40;;;;;;;;;;7334577;19;154193;-15
2021/12/29 00:39:11;;;;;;;2.57;2.37;;;;;;;;;;7336495;19;153545;-15
2021/12/29 00:42:09;;;;;;;2.80;2.50;;;;;;;;;;7335333;19;161947;-15
2021/12/29 00:44:59;;;;;;;4.95;2.78;;;;;;;;;;7337868;19;162612;-16
2021/12/29 00:47:32;;;;;;;4.32;2.47;;;;;;;;;;7336818;19;154057;-16
2021/12/29 00:50:04;;;;;;;2.65;2.45;;;;;;;;;;7336594;19;153658;-16
2021/12/29 00:52:37;;;;;;;2.80;2.30;;;;;;;;;;7337996;19;161902;-15
2021/12/29 00:55:10;;;;;;;3.70;2.22;;;;;;;;;;7333789;19;162594;-15
2021/12/29 00:57:41;;;;;;;2.60;2.40;;;;;;;;;;7334307;19;154229;-15
2021/12/29 01:00:16;;;;;;;3.17;2.40;;;;;;;;;;7333425;19;153534;-15
2021/12/29 01:02:48;;;;;;;2.75;2.17;;;;;;;;;;7333429;19;161861;-16
2021/12/29 01:05:21;;;;;;;2.90;2.38;;;;;;;;;;7333619;19;162334;-15
2021/12/29 01:07:55;;;;;;;2.30;2.10;;;;;;;;;;7336074;19;154013;-15
2021/12/29 01:10:27;;;;;;;2.97;2.40;;;;;;;;;;7335545;19;153562;-16
2021/12/29 01:13:01;;;;;;;2.33;2.13;;;;;;;;;;7333053;19;162181;-16
2021/12/29 01:15:47;;;;;;;2.50;2.30;;;;;;;;;;7333645;19;162446;-15
2021/12/29 01:18:18;;;;;;;2.30;2.10;;;;;;;;;;7332549;19;153964;-16
2021/12/29 01:20:49;;;;;;;2.80;2.50;;;;;;;;;;7333556;19;153659;-16
2021/12/29 01:23:24;;;;;;;3.05;2.35;;;;;;;;;;7331880;19;162081;-15
2021/12/29 01:25:55;;;;;;;2.10;2.00;;;;;;;;;;7332976;19;162434;-15
2021/12/29 01:28:27;;;;;;;2.05;1.95;;;;;;;;;;7332423;19;153963;-15
2021/12/29 01:30:58;;;;;;;2.10;2.00;;;;;;;;;;7332924;19;153718;-16
2021/12/29 01:33:29;;;;;;;1.92;1.83;;;;;;;;;;7331323;19;162139;-15
2021/12/29 01:36:01;;;;;;;2.58;2.38;;;;;;;;;;7332655;19;162377;-15
2021/12/29 01:38:35;;;;;;;2.28;2.08;;;;;;;;;;7331539;19;154081;-15
2021/12/29 01:41:07;;;;;;;2.03;1.85;;;;;;;;;;7332358;19;153592;-15
2021/12/29 01:43:38;;;;;;;2.45;2.25;;;;;;;;;;7335592;19;161899;-15
2021/12/29 07:43:50;;;;;;;22.20;20.10;;;;;;;;;;7366923;19;132383;-15
2021/12/29 07:46:22;;;;;;;30.20;27.10;;;;;;;;;;7362639;19;155880;-15
2021/12/29 07:48:53;;;;;;;33.70;30.30;;;;;;;;;;7364627;19;162149;-16
2021/12/29 07:51:25;;;;;;;35.78;32.58;;;;;;;;;;7364063;19;162374;-16
2021/12/29 07:53:56;;;;;;;31.52;28.63;;;;;;;;;;7364929;19;153643;-15
2021/12/29 07:56:27;;;;;;;27.60;24.95;;;;;;;;;;7364868;19;153599;-16
2021/12/29 07:59:01;;;;;;;25.85;23.45;;;;;;;;;;7364221;19;161974;-15
2021/12/29 08:01:33;;;;;;;24.55;22.20;;;;;;;;;;7364226;19;162638;-14
2021/12/29 08:04:04;;;;;;;22.40;20.40;;;;;;;;;;7364559;19;153835;-15
2021/12/29 08:06:35;;;;;;;22.42;20.17;;;;;;;;;;7364618;19;153516;-15
2021/12/29 08:09:07;;;;;;;19.60;17.88;;;;;;;;;;7364034;19;161973;-16
2021/12/29 08:11:39;;;;;;;19.95;18.05;;;;;;;;;;7363615;19;162343;-16
2021/12/29 08:14:13;;;;;;;18.40;16.75;;;;;;;;;;7364427;19;154032;-16
2021/12/29 08:16:44;;;;;;;17.65;16.05;;;;;;;;;;7364298;19;153920;-15
2021/12/29 08:19:16;;;;;;;17.88;16.02;;;;;;;;;;7363763;19;161943;-15
2021/12/29 08:21:47;;;;;;;16.53;15.07;;;;;;;;;;7363507;19;162632;-15
2021/12/29 08:24:21;;;;;;;16.48;14.98;;;;;;;;;;7362608;19;153906;-15
2021/12/29 08:26:52;;;;;;;14.88;13.57;;;;;;;;;;7363359;19;153637;-16
2021/12/29 08:29:26;;;;;;;14.93;13.63;;;;;;;;;;7362361;19;162014;-15
2021/12/29 08:31:58;;;;;;;14.30;13.00;;;;;;;;;;7361702;19;162495;-15
2021/12/29 08:34:29;;;;;;;14.93;13.63;;;;;;;;;;7362787;19;153899;-15
2021/12/29 08:37:00;;;;;;;13.07;11.93;;;;;;;;;;7361639;19;153658;-15
2021/12/29 08:39:31;;;;;;;12.90;11.70;;;;;;;;;;7362310;19;161886;-15
2021/12/29 08:42:03;;;;;;;13.38;12.13;;;;;;;;;;7361347;19;162369;-13
2021/12/29 08:44:37;;;;;;;12.13;11.13;;;;;;;;;;7336167;19;153711;-14
2021/12/29 08:47:08;;;;;;;13.32;12.02;;;;;;;;;;7334487;19;153542;-14
2021/12/29 08:49:41;;;;;;;11.93;10.88;;;;;;;;;;7333823;19;162272;-14
2021/12/29 08:52:13;;;;;;;;;;;;;;;;;;7333951;19;162787;-14
2021/12/29 08:54:45;;;;;;;11.35;10.32;;;;;;;;;;7334405;19;154297;-15
2021/12/29 08:57:16;;;;;;;11.68;10.68;;;;;;;;;;7334001;19;153634;-14
2021/12/29 08:59:50;;;;;;;12.15;10.93;;;;;;;;;;7333833;19;161888;-15
2021/12/29 09:02:21;;;;;;;11.23;10.07;;;;;;;;;;7333740;19;162365;-15
2021/12/29 09:04:53;;;;;;;11.85;10.75;;;;;;;;;;7334178;19;154140;-15
2021/12/29 09:07:25;;;;;;;11.55;10.55;;;;;;;;;;7333973;19;153602;-16
2021/12/29 09:09:56;;;;;;;11.15;10.15;;;;;;;;;;7333523;19;161744;-15
2021/12/29 09:12:27;;;;;;;10.07;9.27;;;;;;;;;;7333203;19;162639;-16
2021/12/29 09:15:01;;;;;;;10.45;9.45;;;;;;;;;;7333910;19;154306;-16
2021/12/29 09:17:32;;;;;;;9.73;8.93;;;;;;;;;;7333862;19;153569;-15
2021/12/29 09:20:04;;;;;;;10.43;9.48;;;;;;;;;;7333218;19;161905;-15
2021/12/29 09:22:35;;;;;;;9.57;8.77;;;;;;;;;;7333300;19;162478;-15
2021/12/29 09:25:08;;;;;;;9.10;8.35;;;;;;;;;;7333614;19;153976;-15
2021/12/29 09:27:39;;;;;;;;;;;;;;;;;;7333948;19;153519;-15
2021/12/29 09:30:13;;;;;;;9.23;8.32;;;;;;;;;;7333114;19;162286;-15
2021/12/29 09:32:45;;;;;;;8.25;7.55;;;;;;;;;;7332317;19;162325;-16
2021/12/29 09:35:17;;;;;;;9.20;8.40;;;;;;;;;;7333305;19;154126;-15
2021/12/29 09:37:48;;;;;;;8.65;7.95;;;;;;;;;;7331975;19;153568;-16
2021/12/29 09:40:21;;;;;;;8.43;7.72;;;;;;;;;;7332688;19;162010;-17
2021/12/29 09:42:55;;;;;;;8.88;8.18;;;;;;;;;;7330695;19;162401;-17
2021/12/29 09:45:30;;;;;;;7.30;6.70;;;;;;;;;;7333065;19;153760;-16
2021/12/29 09:48:02;;;;;;;6.28;5.78;;;;;;;;;;7332852;19;153732;-15
2021/12/29 09:50:36;;;;;;;6.40;5.90;;;;;;;;;;7331384;19;162019;-16
2021/12/29 09:53:09;;;;;;;5.15;4.75;;;;;;;;;;7331442;19;163917;-15
2021/12/29 09:55:45;;;;;;;5.07;4.68;;;;;;;;;;7330659;19;153936;-15
2021/12/29 09:58:19;;;;;;;5.40;5.05;;;;;;;;;;7332785;19;153688;-15
2021/12/29 10:00:59;;;;;;;5.72;5.22;;;;;;;;;;7332337;19;161787;-15
2021/12/29 10:03:32;;;;;;;6.10;5.60;;;;;;;;;;7332057;19;162394;-15
2021/12/29 10:06:09;;;;;;;6.10;5.70;;;;;;;;;;7332412;19;154151;-16
2021/12/29 10:08:42;;;;;;;6.30;5.82;;;;;;;;;;7332146;19;153549;-15
2021/12/29 10:11:18;;;;;;;5.93;5.50;;;;;;;;;;7331979;19;162011;-15
2021/12/29 10:13:51;;;;;;;6.15;5.65;;;;;;;;;;7330419;19;162598;-16
2021/12/29 10:16:26;;;;;;;;;;;;;;;;;;7332677;19;153908;-15
2021/12/29 10:19:02;;;;;;;6.13;5.63;;;;;;;;;;7332352;19;153529;-15
2021/12/29 10:21:35;;;;;;;5.95;5.45;;;;;;;;;;7331669;19;162020;-16
2021/12/29 10:24:07;;;;;;;6.00;5.50;;;;;;;;;;7331632;19;162381;-16
2021/12/29 10:26:41;;;;;;;5.63;5.13;;;;;;;;;;7331830;19;154027;-17
2021/12/29 10:29:15;;;;;;;4.95;4.55;;;;;;;;;;7330739;19;153641;-16
2021/12/29 10:31:51;;;;;;;5.35;4.95;;;;;;;;;;7331397;19;162140;-15
2021/12/29 10:34:26;;;;;;;4.97;4.68;;;;;;;;;;7328214;19;162344;-15
2021/12/29 10:37:00;;;;;;;5.38;4.88;;;;;;;;;;7331570;19;154024;-15
2021/12/29 10:39:34;;;;;;;5.43;5.03;;;;;;;;;;7331359;19;153730;-16
2021/12/29 10:42:11;;;;;;;4.65;4.35;;;;;;;;;;7329869;19;161981;-15
2021/12/29 10:44:47;;;;;;;4.85;4.45;;;;;;;;;;7329586;19;162708;-16
2021/12/29 10:47:24;;;;;;;5.00;4.60;;;;;;;;;;7331135;19;153899;-14
2021/12/29 10:50:00;;;;;;;4.80;4.40;;;;;;;;;;7331068;19;153805;-14
2021/12/29 10:52:35;;;;;;;4.60;4.30;;;;;;;;;;7330680;19;161972;-16
2021/12/29 10:55:09;;;;;;;4.35;4.05;;;;;;;;;;7328221;19;162281;-16
2021/12/29 10:57:40;;;;;;;4.15;3.85;;;;;;;;;;7329713;19;153946;-15
2021/12/29 11:00:19;;;;;;;4.35;4.05;;;;;;;;;;7329590;19;153570;-15
2021/12/29 11:02:57;;;;;;;4.18;3.88;;;;;;;;;;7330319;19;162089;-16
2021/12/29 11:05:38;;;;;;;3.83;3.63;;;;;;;;;;7330710;19;162393;-15
2021/12/29 11:08:13;;;;;;;3.63;3.38;;;;;;;;;;7330339;19;153891;-16
2021/12/29 11:10:45;;;;;;;3.38;3.17;;;;;;;;;;7330686;19;153581;-14
2021/12/29 11:13:26;;;;;;;3.47;3.28;;;;;;;;;;7328870;19;162390;-16
2021/12/29 11:15:59;;;;;;;3.80;3.47;;;;;;;;;;7330119;19;162510;-14
2021/12/29 11:18:44;;;;;;;3.55;3.35;;;;;;;;;;7330408;19;153960;-15
2021/12/29 11:21:25;;;;;;;3.10;2.90;;;;;;;;;;7330263;19;153686;-15
2021/12/29 11:23:56;;;;;;;3.30;3.10;;;;;;;;;;7328907;19;161738;-15
2021/12/29 11:26:32;;;;;;;3.22;3.03;;;;;;;;;;7329522;19;162389;-15
2021/12/29 11:29:08;;;;;;;3.35;3.15;;;;;;;;;;7329727;19;153892;-15
2021/12/29 11:31:42;;;;;;;2.67;2.58;;;;;;;;;;7328486;19;153588;-15
2021/12/29 11:34:24;;;;;;;3.38;3.08;;;;;;;;;;7328495;19;162517;-15
2021/12/29 11:37:04;;;;;;;3.10;2.90;;;;;;;;;;7329231;19;162338;-15
2021/12/29 11:39:38;;;;;;;2.92;2.72;;;;;;;;;;7329504;19;154127;-18
2021/12/29 11:42:11;;;;;;;2.92;2.72;;;;;;;;;;7328025;19;153518;-15
2021/12/29 11:44:43;;;;;;;2.90;2.70;;;;;;;;;;7329133;19;162044;-15
2021/12/29 11:47:15;;;;;;;2.65;2.45;;;;;;;;;;7329012;19;162346;-15
2021/12/29 11:49:49;;;;;;;3.30;3.00;;;;;;;;;;7329460;19;153993;-15
2021/12/29 11:52:34;;;;;;;3.00;2.78;;;;;;;;;;7329231;19;153686;-15
2021/12/29 11:55:10;;;;;;;3.00;2.80;;;;;;;;;;7327209;19;161953;-15
2021/12/29 11:57:42;;;;;;;2.95;2.75;;;;;;;;;;7328610;19;162323;-14
2021/12/29 12:00:19;;;;;;;3.00;2.80;;;;;;;;;;7328897;19;153934;-17
2021/12/29 12:02:53;;;;;;;2.80;2.60;;;;;;;;;;7328565;19;153653;-15
2021/12/29 12:05:37;;;;;;;2.90;2.70;;;;;;;;;;7328007;19;161996;-16
2021/12/29 12:08:10;;;;;;;2.55;2.35;;;;;;;;;;7328258;19;162493;-15
2021/12/29 12:10:43;;;;;;;2.50;2.30;;;;;;;;;;7328600;19;153930;-16
2021/12/29 12:13:27;;;;;;;2.30;2.20;;;;;;;;;;7328626;19;153114;-15
2021/12/29 12:16:09;;;;;;;2.50;2.30;;;;;;;;;;7326034;19;161782;-15
2021/12/29 12:18:49;;;;;;;2.30;2.20;;;;;;;;;;7330452;19;162524;-15
2021/12/29 12:21:33;;;;;;;5.05;2.25;;;;;;;;;;7335242;19;154013;-14
2021/12/29 12:24:17;;;;;;;2.88;2.67;;;;;;;;;;7335013;19;153880;-15
2021/12/29 12:26:53;;;;;;;2.20;2.10;;;;;;;;;;7334587;19;161882;-16
2021/12/29 12:29:26;;;;;;;1.90;1.80;;;;;;;;;;7334684;19;162632;-16
2021/12/29 12:32:12;;;;;;;2.00;1.90;;;;;;;;;;7334981;19;154046;-15
2021/12/29 12:34:54;;;;;;;2.17;2.00;;;;;;;;;;7333904;19;153770;-15
2021/12/29 12:37:34;;;;;;;2.20;1.80;;;;;;;;;;7334188;19;161934;-18
2021/12/29 12:40:08;;;;;;;2.00;1.85;;;;;;;;;;7334392;19;162635;-16
2021/12/29 12:42:40;;;;;;;2.72;2.00;;;;;;;;;;7332818;19;154029;-14
2021/12/29 12:45:24;;;;;;;2.13;1.92;;;;;;;;;;7334358;19;153678;-15
2021/12/29 12:48:06;;;;;;;1.80;1.70;;;;;;;;;;7334187;19;161930;-15
2021/12/29 12:50:39;;;;;;;1.70;1.60;;;;;;;;;;7333769;19;162587;-16
2021/12/29 12:53:14;;;;;;;1.95;1.80;;;;;;;;;;7334450;19;154478;-16
2021/12/29 12:55:54;;;;;;;1.90;1.80;;;;;;;;;;7333035;19;153925;-14
2021/12/29 12:58:27;;;;;;;1.95;1.75;;;;;;;;;;7332848;19;162082;-16
2021/12/29 13:01:07;;;;;;;2.45;1.85;;;;;;;;;;7333824;19;162652;-16
2021/12/29 13:03:38;;;;;;;1.60;1.50;;;;;;;;;;7334193;19;153997;-17
2021/12/29 13:06:15;;;;;;;1.48;1.38;;;;;;;;;;7333929;19;153713;-14
2021/12/29 13:08:51;;;;;;;1.67;1.58;;;;;;;;;;7333553;19;161807;-14
2021/12/29 13:11:25;;;;;;;1.85;1.55;;;;;;;;;;7333525;19;162579;-15
2021/12/29 13:13:57;;;;;;;1.85;1.67;;;;;;;;;;7334028;19;154257;-14
2021/12/29 13:16:29;;;;;;;1.88;1.50;;;;;;;;;;7332285;19;153533;-14
2021/12/29 13:19:01;;;;;;;1.67;1.57;;;;;;;;;;7332538;19;161830;-14
2021/12/29 13:21:44;;;;;;;1.27;1.17;;;;;;;;;;7333606;19;162292;-15
2021/12/29 13:24:18;;;;;;;1.50;1.40;;;;;;;;;;7333519;19;154090;-15
2021/12/29 13:26:52;;;;;;;2.83;1.60;;;;;;;;;;7333337;19;153865;-15
2021/12/29 13:29:26;;;;;;;1.60;1.50;;;;;;;;;;7333342;19;161637;-15
2021/12/29 13:31:57;;;;;;;1.30;1.20;;;;;;;;;;7332929;19;162352;-14
2021/12/29 13:34:32;;;;;;;1.63;1.38;;;;;;;;;;7332825;19;153991;-15
2021/12/29 13:37:10;;;;;;;1.40;1.30;;;;;;;;;;7329170;19;153733;-15
2021/12/29 13:39:54;;;;;;;2.35;1.45;;;;;;;;;;7332567;19;162056;-15
2021/12/29 13:42:25;;;;;;;1.40;1.30;;;;;;;;;;7332844;19;162385;-16
2021/12/29 13:44:59;;;;;;;1.35;1.25;;;;;;;;;;7332802;19;153988;-16
2021/12/29 13:47:31;;;;;;;1.48;1.38;;;;;;;;;;7330339;19;153800;-16
2021/12/29 13:50:13;;;;;;;1.90;1.45;;;;;;;;;;7333662;19;161848;-15
2021/12/29 13:52:44;;;;;;;1.35;1.20;;;;;;;;;;7335338;19;162353;-15
2021/12/29 13:55:27;;;;;;;2.38;1.42;;;;;;;;;;7334280;19;153953;-16
2021/12/29 13:58:00;;;;;;;1.10;1.10;;;;;;;;;;7335399;19;153650;-16
2021/12/29 14:00:31;;;;;;;2.63;1.20;;;;;;;;;;7335594;19;162270;-16
2021/12/29 14:03:03;;;;;;;1.20;1.10;;;;;;;;;;7333068;19;162459;-16
2021/12/29 14:05:39;;;;;;;1.45;1.35;;;;;;;;;;7336107;19;153970;-17
2021/12/29 14:08:14;;;;;;;1.30;1.20;;;;;;;;;;7333191;19;153609;-17
2021/12/29 14:10:50;;;;;;;1.40;1.30;;;;;;;;;;7334123;19;162301;-16
2021/12/29 14:13:23;;;;;;;1.77;1.20;;;;;;;;;;7330171;19;162548;-16
2021/12/29 14:16:04;;;;;;;1.50;1.25;;;;;;;;;;7333268;19;154156;-16
2021/12/29 14:18:41;;;;;;;1.30;1.20;;;;;;;;;;7332449;19;153484;-16
2021/12/29 14:21:17;;;;;;;1.52;1.20;;;;;;;;;;7332067;19;162331;-16
2021/12/29 14:23:55;;;;;;;1.58;1.17;;;;;;;;;;7332349;19;162517;-17
2021/12/29 14:26:31;;;;;;;1.83;1.48;;;;;;;;;;7334435;19;154006;-16
2021/12/29 14:29:03;;;;;;;3.13;1.15;;;;;;;;;;7334178;19;153485;-17
2021/12/29 14:31:40;;;;;;;2.05;1.10;;;;;;;;;;7333547;19;161945;-15
2021/12/29 14:34:13;;;;;;;2.05;1.10;;;;;;;;;;7331958;19;162448;-15
2021/12/29 14:36:47;;;;;;;0.80;0.80;;;;;;;;;;7330483;19;153700;-16
2021/12/29 14:39:22;;;;;;;0.95;0.85;;;;;;;;;;7330755;19;153821;-15
2021/12/29 14:42:05;;;;;;;1.00;0.90;;;;;;;;;;7327443;19;161820;-16
2021/12/29 14:44:38;;;;;;;1.48;0.93;;;;;;;;;;7330985;19;162507;-14
2021/12/29 14:47:12;;;;;;;0.77;0.70;;;;;;;;;;7330185;19;153998;-15
2021/12/29 14:49:44;;;;;;;3.08;0.70;;;;;;;;;;7331376;19;154168;-15
2021/12/29 14:52:19;;;;;;;0.80;0.80;;;;;;;;;;7329557;19;162211;-24
2021/12/29 14:54:54;;;;;;;1.48;0.98;;;;;;;;;;7330848;19;162765;-17
2021/12/29 14:57:34;;;;;;;1.25;0.98;;;;;;;;;;7329160;19;154001;-15
2021/12/29 15:00:12;;;;;;;1.00;0.80;;;;;;;;;;7334978;19;153563;-15
2021/12/29 15:02:44;;;;;;;1.70;0.80;;;;;;;;;;7326767;19;161976;-15
2021/12/29 15:05:20;;;;;;;1.20;1.10;;;;;;;;;;7333318;19;162604;-16
2021/12/29 15:07:54;;;;;;;0.95;0.90;;;;;;;;;;7330276;19;154139;-16
2021/12/29 15:10:37;;;;;;;3.58;1.05;;;;;;;;;;7330452;19;153581;-16
2021/12/29 15:13:18;;;;;;;1.20;1.00;;;;;;;;;;7331167;19;161870;-15
2021/12/29 15:15:55;;;;;;;1.95;0.90;;;;;;;;;;7333649;19;162577;-16
2021/12/29 15:18:28;;;;;;;2.75;1.10;;;;;;;;;;7328793;19;153969;-16
2021/12/29 15:21:00;;;;;;;;;;;;;;;;;;7332455;19;153665;-15
2021/12/29 15:23:34;;;;;;;0.80;0.80;;;;;;;;;;7330819;19;161987;-16
2021/12/29 15:26:06;;;;;;;1.38;0.90;;;;;;;;;;7333179;19;163689;-15
2021/12/29 15:28:40;;;;;;;0.60;0.60;;;;;;;;;;7328721;19;154127;-16
2021/12/29 15:31:14;;;;;;;1.30;0.73;;;;;;;;;;7330355;19;153528;-16
2021/12/29 15:33:46;;;;;;;0.80;0.80;;;;;;;;;;7332103;19;161754;-16
2021/12/29 15:36:17;;;;;;;1.00;0.90;;;;;;;;;;7332812;19;162477;-16
2021/12/29 15:38:49;;;;;;;1.10;1.00;;;;;;;;;;7325573;19;153948;-16
2021/12/29 15:41:22;;;;;;;2.15;0.75;;;;;;;;;;7323957;19;153316;-16
2021/12/29 15:43:56;;;;;;;1.88;0.93;;;;;;;;;;7325610;19;161989;-15
2021/12/29 15:46:27;;;;;;;0.90;0.70;;;;;;;;;;7331648;19;162619;-16
2021/12/29 15:48:59;;;;;;;1.02;0.80;;;;;;;;;;7332557;19;154072;-16
2021/12/29 15:51:31;;;;;;;1.23;0.73;;;;;;;;;;7329477;19;153499;-15
2021/12/29 15:54:02;;;;;;;0.82;0.82;;;;;;;;;;7330151;19;162625;-15
2021/12/29 15:56:33;;;;;;;1.63;0.82;;;;;;;;;;7335409;19;162369;-15
2021/12/29 15:59:07;;;;;;;0.68;0.68;;;;;;;;;;7335435;19;154030;-15
2021/12/29 16:01:39;;;;;;;1.50;0.82;;;;;;;;;;7339814;19;153276;-15
2021/12/29 16:04:10;;;;;;;0.60;0.60;;;;;;;;;;7335397;19;161773;-16
2021/12/29 16:06:42;;;;;;;1.38;0.60;;;;;;;;;;7335497;19;162440;-15
2021/12/29 16:09:13;;;;;;;0.75;0.65;;;;;;;;;;7334429;19;154031;-16
2021/12/29 16:11:44;;;;;;;0.65;0.52;;;;;;;;;;7337630;19;154952;-15
2021/12/29 16:14:18;;;;;;;0.50;0.50;;;;;;;;;;7338610;19;161765;-16
2021/12/29 16:16:50;;;;;;;2.63;0.82;;;;;;;;;;7338786;19;162545;-15
2021/12/29 16:19:26;;;;;;;1.85;1.00;;;;;;;;;;7337630;19;153997;-15
2021/12/29 16:21:58;;;;;;;0.47;0.47;;;;;;;;;;7339252;19;155590;-15
2021/12/29 16:24:30;;;;;;;0.95;0.60;;;;;;;;;;7338749;19;161626;-15
2021/12/29 16:27:01;;;;;;;1.03;0.77;;;;;;;;;;7337791;19;162404;-17
2021/12/29 16:29:35;;;;;;;1.75;0.65;;;;;;;;;;7338430;19;154052;-15
2021/12/29 16:32:08;;;;;;;0.70;0.65;;;;;;;;;;7338266;19;153602;-15
2021/12/29 16:34:39;;;;;;;1.30;0.57;;;;;;;;;;7338309;19;161868;-15
2021/12/29 16:37:11;;;;;;;0.70;0.60;;;;;;;;;;7337744;19;162347;-15
2021/12/29 16:39:42;;;;;;;1.02;0.50;;;;;;;;;;7338978;19;153989;-15
2021/12/29 16:42:14;;;;;;;0.65;0.52;;;;;;;;;;7335870;19;153565;-15
2021/12/29 16:44:48;;;;;;;0.52;0.52;;;;;;;;;;7338375;19;161805;-16
2021/12/29 16:47:19;;;;;;;1.58;0.70;;;;;;;;;;7338184;19;162403;-15
2021/12/29 16:49:54;;;;;;;0.55;0.50;;;;;;;;;;7338018;19;154054;-16
2021/12/29 16:52:26;;;;;;;0.70;0.70;;;;;;;;;;7337640;19;153527;-15
2021/12/29 16:54:58;;;;;;;0.57;0.57;;;;;;;;;;7336361;19;161971;-14
2021/12/29 16:57:29;;;;;;;1.10;0.50;;;;;;;;;;7336956;19;162398;-15
2021/12/29 17:00:03;;;;;;;0.60;0.60;;;;;;;;;;7330752;19;154306;-24
2021/12/29 17:02:36;;;;;;;0.90;0.63;;;;;;;;;;7331940;19;154490;-15
2021/12/29 17:05:09;;;;;;;0.50;0.50;;;;;;;;;;7335045;19;161826;-15
2021/12/29 17:07:42;;;;;;;0.70;0.70;;;;;;;;;;7333797;19;162394;-16
2021/12/29 17:10:15;;;;;;;0.65;0.57;;;;;;;;;;7336094;19;153967;-15
2021/12/29 17:12:47;;;;;;;0.57;0.57;;;;;;;;;;7333996;19;153688;-15
2021/12/29 17:15:21;;;;;;;0.60;0.60;;;;;;;;;;7334591;19;161994;-15
2021/12/29 17:17:53;;;;;;;0.73;0.70;;;;;;;;;;7334443;19;162444;-15
2021/12/29 17:20:28;;;;;;;0.70;0.70;;;;;;;;;;7333790;19;154227;-16
2021/12/29 17:22:59;;;;;;;0.70;0.70;;;;;;;;;;7338502;19;153700;-15
2021/12/29 17:25:31;;;;;;;0.70;0.70;;;;;;;;;;7333328;19;162119;-15
2021/12/29 17:28:03;;;;;;;0.60;0.60;;;;;;;;;;7331911;19;162352;-14
2021/12/29 17:30:37;;;;;;;1.15;0.60;;;;;;;;;;7331536;19;153981;-15
2021/12/29 17:33:08;;;;;;;0.60;0.60;;;;;;;;;;7333408;19;153641;-15
2021/12/29 17:35:40;;;;;;;0.60;0.60;;;;;;;;;;7332904;19;162242;-15
2021/12/29 17:38:11;;;;;;;0.60;0.60;;;;;;;;;;7333968;19;162539;-15
2021/12/29 17:40:42;;;;;;;0.65;0.60;;;;;;;;;;7331962;19;154120;-16
2021/12/29 17:43:14;;;;;;;0.60;0.60;;;;;;;;;;7330866;19;153494;-15
2021/12/29 17:45:48;;;;;;;0.57;0.57;;;;;;;;;;7331356;19;161908;-15
2021/12/29 17:48:19;;;;;;;0.40;0.40;;;;;;;;;;7332225;19;162503;-16
2021/12/29 17:50:51;;;;;;;0.65;0.50;;;;;;;;;;7332463;19;154279;-15
2021/12/29 17:53:22;;;;;;;0.50;0.50;;;;;;;;;;7332702;19;153772;-16
2021/12/29 17:55:54;;;;;;;0.60;0.60;;;;;;;;;;7332187;19;161623;-16
2021/12/29 17:58:26;;;;;;;0.83;0.60;;;;;;;;;;7330500;19;162564;-15
2021/12/29 18:01:00;;;;;;;0.50;0.50;;;;;;;;;;7336766;19;154008;-16
2021/12/29 18:03:31;;;;;;;0.60;0.60;;;;;;;;;;7332539;19;153574;-16
2021/12/29 18:06:03;;;;;;;0.40;0.40;;;;;;;;;;7331911;19;162023;-15
2021/12/29 18:08:34;;;;;;;0.60;0.60;;;;;;;;;;7330770;19;162677;-15
2021/12/29 18:11:05;;;;;;;0.55;0.45;;;;;;;;;;7333440;19;154088;-16
2021/12/29 18:13:37;;;;;;;0.70;0.70;;;;;;;;;;7332080;19;153550;-16
2021/12/29 18:16:12;;;;;;;0.60;0.60;;;;;;;;;;7329955;19;162008;-15
2021/12/29 18:18:46;;;;;;;0.85;0.80;;;;;;;;;;7330279;19;162400;-16
2021/12/29 18:21:17;;;;;;;0.50;0.50;;;;;;;;;;7331849;19;154282;-15
2021/12/29 18:23:49;;;;;;;0.60;0.60;;;;;;;;;;7330148;19;154055;-15
2021/12/29 18:26:20;;;;;;;0.70;0.70;;;;;;;;;;7331154;19;161781;-15
2021/12/29 18:28:52;;;;;;;0.52;0.52;;;;;;;;;;7331106;19;162322;-15
2021/12/29 18:31:25;;;;;;;0.57;0.57;;;;;;;;;;7331617;19;153917;-15
2021/12/29 18:33:57;;;;;;;0.60;0.60;;;;;;;;;;7331478;19;153569;-15
2021/12/29 18:36:29;;;;;;;1.05;0.65;;;;;;;;;;7330938;19;161829;-16
2021/12/29 18:39:01;;;;;;;0.50;0.50;;;;;;;;;;7330562;19;162409;-15
2021/12/29 18:41:32;;;;;;;0.30;0.30;;;;;;;;;;7329743;19;154155;-20
2021/12/29 18:44:04;;;;;;;2.10;0.73;;;;;;;;;;7331220;19;153683;-16
2021/12/29 18:46:38;;;;;;;0.60;0.60;;;;;;;;;;7330752;19;161777;-15
2021/12/29 18:49:09;;;;;;;1.17;0.70;;;;;;;;;;7330950;19;162506;-16
2021/12/29 18:51:41;;;;;;;0.60;0.50;;;;;;;;;;7331178;19;153991;-15
2021/12/29 18:54:12;;;;;;;1.67;0.50;;;;;;;;;;7331023;19;153870;-15
2021/12/29 18:56:43;;;;;;;0.65;0.57;;;;;;;;;;7330167;19;161710;-15
2021/12/29 18:59:15;;;;;;;0.45;0.40;;;;;;;;;;7328738;19;162364;-15
2021/12/29 19:01:49;;;;;;;2.25;0.60;;;;;;;;;;7330389;19;154197;-15
2021/12/29 19:04:23;;;;;;;0.50;0.50;;;;;;;;;;7330368;19;153578;-15
2021/12/29 19:06:54;;;;;;;;;;;;;;;;;;7330538;19;161744;-15
2021/12/29 19:09:25;;;;;;;0.80;0.80;;;;;;;;;;7330024;19;162498;-15
2021/12/29 19:11:57;;;;;;;1.23;1.15;;;;;;;;;;7330013;19;154593;-17
2021/12/29 19:14:31;;;;;;;1.13;1.02;;;;;;;;;;7329122;19;153568;-16
2021/12/29 19:17:05;;;;;;;1.55;1.27;;;;;;;;;;7329641;19;161785;-15
2021/12/29 19:19:40;;;;;;;1.27;0.80;;;;;;;;;;7326886;19;162584;-15
2021/12/29 19:22:15;;;;;;;0.82;0.82;;;;;;;;;;7328038;19;153994;-15
2021/12/29 19:24:47;;;;;;;1.23;1.10;;;;;;;;;;7330019;19;153545;-16
2021/12/29 19:27:18;;;;;;;1.80;1.20;;;;;;;;;;7327928;19;162077;-15
2021/12/29 19:29:50;;;;;;;0.98;0.90;;;;;;;;;;7329547;19;162426;-16
2021/12/29 19:32:24;;;;;;;1.73;1.10;;;;;;;;;;7329834;19;154053;-15
2021/12/29 19:34:55;;;;;;;1.08;1.08;;;;;;;;;;7329731;19;153458;-14
2021/12/29 19:37:26;;;;;;;1.55;1.17;;;;;;;;;;7329347;19;162037;-15
2021/12/29 19:39:58;;;;;;;1.45;0.85;;;;;;;;;;7328280;19;162486;-14
2021/12/29 19:42:29;;;;;;;1.00;1.00;;;;;;;;;;7328042;19;153990;-14
2021/12/29 19:45:00;;;;;;;0.90;0.88;;;;;;;;;;7329350;19;153604;-16
2021/12/29 19:47:35;;;;;;;1.10;1.00;;;;;;;;;;7328889;19;161883;-14
2021/12/29 19:50:07;;;;;;;2.08;1.10;;;;;;;;;;7328916;19;162325;-15
2021/12/29 19:52:39;;;;;;;2.35;0.90;;;;;;;;;;7329310;19;153977;-16
2021/12/29 19:55:12;;;;;;;1.00;0.90;;;;;;;;;;7328034;19;153569;-15
2021/12/29 19:57:44;;;;;;;0.80;0.80;;;;;;;;;;7328773;19;161802;-15
2021/12/29 20:00:19;;;;;;;0.85;0.85;;;;;;;;;;7327644;19;162385;-15
2021/12/29 20:02:53;;;;;;;1.67;1.00;;;;;;;;;;7328847;19;154000;-14
2021/12/29 20:05:25;;;;;;;1.00;0.90;;;;;;;;;;7329007;19;153478;-15
2021/12/29 20:07:58;;;;;;;0.90;0.90;;;;;;;;;;7328294;19;161927;-14
2021/12/29 20:10:32;;;;;;;1.27;0.85;;;;;;;;;;7328135;19;162366;-15
2021/12/29 20:13:02;;;;;;;;;;;;;;;;;;7328902;19;154108;-15
2021/12/29 20:15:34;;;;;;;1.48;0.80;;;;;;;;;;7327900;19;154080;-14
2021/12/29 20:18:09;;;;;;;1.10;0.75;;;;;;;;;;7330411;19;161799;-16
2021/12/29 20:20:40;;;;;;;0.80;0.80;;;;;;;;;;7330194;19;162372;-15
2021/12/29 20:23:12;;;;;;;1.25;1.00;;;;;;;;;;7332026;19;154130;-16
2021/12/29 20:25:44;;;;;;;1.15;1.08;;;;;;;;;;7326821;19;153526;-16
2021/12/29 20:28:15;;;;;;;0.90;0.90;;;;;;;;;;7327567;19;161857;-16
2021/12/29 20:30:48;;;;;;;1.17;1.00;;;;;;;;;;7329130;19;162385;-16
2021/12/29 20:33:23;;;;;;;1.20;1.10;;;;;;;;;;7331392;19;154270;-15
2021/12/29 20:35:55;;;;;;;0.88;0.80;;;;;;;;;;7330958;19;153536;-15
2021/12/29 20:38:26;;;;;;;5.07;4.77;;;;;;;;;;7330892;19;161950;-16
2021/12/29 20:40:58;;;;;;;2.30;2.20;;;;;;;;;;7335847;19;162687;-15
2021/12/29 20:43:31;;;;;;;3.50;3.30;;;;;;;;;;7335474;19;153548;-15
2021/12/29 20:46:04;;;;;;;2.97;2.63;;;;;;;;;;7338308;19;153694;-15
2021/12/29 20:48:42;;;;;;;2.58;2.38;;;;;;;;;;7337478;19;161989;-14
2021/12/29 20:51:15;;;;;;;3.58;3.38;;;;;;;;;;7335711;19;162674;-15
2021/12/29 20:53:55;;;;;;;3.33;3.10;;;;;;;;;;7336014;19;154136;-17
2021/12/29 20:56:27;;;;;;;3.20;3.00;;;;;;;;;;7335579;19;153777;-16
2021/12/29 20:58:58;;;;;;;1.95;1.85;;;;;;;;;;7337642;19;161938;-15
2021/12/29 21:01:31;;;;;;;3.40;3.20;;;;;;;;;;7335519;19;162467;-16
2021/12/29 21:04:05;;;;;;;2.72;2.53;;;;;;;;;;7337545;19;154314;-20
2021/12/29 21:06:38;;;;;;;3.03;2.75;;;;;;;;;;7336448;19;153473;-15